Hauptseite
METAR-TAF:

METAR-TAF

Flughäfen :

Fliegerhorst Schleswig

Schleswig-Jagel, Deutschland

Breite: 54-28N, Länge: 009-31E, Höhe: 22 m

Beobachtung

Neuester Wetterbericht von vor 1 Stunde und 24 Minuten, um 16:20 UTC
Wind 10 kt aus West
Temperatur 17°C
Luftfeuchtigkeit 72%
Luftdruck 1014 hPa

METAR: ETNS 231620Z AUTO 27010KT //// // ////// 17/12 Q1014 ///

Zeit: 19:44 (17:44 UTC)

Prognose

Neuester Wetterbericht von vor 4 Stunden und 31 Minuten, um 13:13 UTC
Gültige Prognose vom 23 um 14 UTC bis 23 um 23 UTC
Wind 10 kt aus West
Sichtweite 10 km oder mehr
Leicht bewölkt in der Höhe von 2500 ft
Durchbrochene Bewölkung in der Höhe von 5000 ft

TAF: ETNS 231313Z 2314/2323 27010KT 9999 NSW FEW025 BKN050

Wetterbeobachtungen und Prognosen von mehr als 4000 Flughäfen (METAR und TAF Bericht).

Die verfügbaren Stationen werden durch gelbe und rote Markierungen auf der Karte dargestellt.

Führen Sie die Maus auf sie, um den Namen der Station zu sehen.

Darauf klicken, um die Beobachtung von Wetterbeobachtungen und Prognosen zu sehen.

Um die Karte zu ändern : klicken Sie auf den grünen Tasten mit einem schwarzen Kreuz Zum Vergrößern, auf den grünen Button mit einem Gedankenstrich zu verkleinern, oder auf die grünen Pfeile für benachbarte Karten.


METAR-TAF: